Time;durP1;ratioP1;P1;durP2;ratioP2;P2;SDS_P1;SDS_P2;PMS_P1;PMS_P2;Temp;Humidity;BMP_temperature;BMP_pressure;BME280_temperature;BME280_humidity;BME280_pressure;Samples;Min_cycle;Max_cycle;Signal;HPM_P1;HPM_P2
2024/01/02 00:02:03;;;;;;;97.53;36.17;;;;;;;;;;5040363;28;20480;-72
2024/01/02 00:04:29;;;;;;;92.77;36.97;;;;;;;;;;5039760;28;20432;-72
2024/01/02 00:06:56;;;;;;;91.87;37.13;;;;;;;;;;5057070;28;20187;-72
2024/01/02 00:09:23;;;;;;;89.00;35.20;;;;;;;;;;5055853;28;20191;-72
2024/01/02 00:11:49;;;;;;;85.37;35.70;;;;;;;;;;5073010;28;20522;-72
2024/01/02 00:14:16;;;;;;;88.33;35.07;;;;;;;;;;5056965;28;20191;-72
2024/01/02 00:16:42;;;;;;;90.13;36.17;;;;;;;;;;5057437;28;20182;-72
2024/01/02 00:19:09;;;;;;;92.23;36.13;;;;;;;;;;5056830;28;20194;-72
2024/01/02 00:21:37;;;;;;;89.87;34.90;;;;;;;;;;5057075;28;20221;-72
2024/01/02 00:24:04;;;;;;;96.83;38.23;;;;;;;;;;5039335;28;20569;-72
2024/01/02 00:26:31;;;;;;;110.57;41.10;;;;;;;;;;5056472;28;20206;-72
2024/01/02 00:28:58;;;;;;;105.93;39.33;;;;;;;;;;5057050;28;20533;-72
2024/01/02 00:31:25;;;;;;;126.70;39.00;;;;;;;;;;5057280;28;20237;-72
2024/01/02 00:33:51;;;;;;;129.07;39.03;;;;;;;;;;5022760;28;20525;-72
2024/01/02 00:36:18;;;;;;;114.57;40.77;;;;;;;;;;5039444;28;20410;-72
2024/01/02 00:38:45;;;;;;;139.20;41.43;;;;;;;;;;5055698;28;20592;-72
2024/01/02 00:41:12;;;;;;;141.03;39.57;;;;;;;;;;5055133;28;20429;-72
2024/01/02 00:43:39;;;;;;;141.30;38.47;;;;;;;;;;5056722;28;20413;-72
2024/01/02 00:46:05;;;;;;;125.07;37.80;;;;;;;;;;5038960;28;20191;-72
2024/01/02 00:48:32;;;;;;;164.03;38.23;;;;;;;;;;5039117;28;20205;-72
2024/01/02 00:51:00;;;;;;;147.13;36.57;;;;;;;;;;5056302;28;20634;-73
2024/01/02 00:53:26;;;;;;;150.47;37.90;;;;;;;;;;5039135;28;20469;-72
2024/01/02 00:55:53;;;;;;;142.63;40.37;;;;;;;;;;5039376;28;20236;-72
2024/01/02 00:58:20;;;;;;;134.13;38.40;;;;;;;;;;5055229;28;20199;-72
2024/01/02 01:00:50;;;;;;;146.23;39.00;;;;;;;;;;5039321;28;22509;-73
2024/01/02 01:03:18;;;;;;;188.57;40.03;;;;;;;;;;5038699;28;20252;-72
2024/01/02 01:05:45;;;;;;;170.23;37.97;;;;;;;;;;5056271;28;20182;-72
2024/01/02 01:12:11;;;;;;;118.30;37.03;;;;;;;;;;5055898;28;20557;-72
2024/01/02 01:49:40;;;;;;;147.80;37.37;;;;;;;;;;5055447;28;20486;-72
2024/01/02 01:52:07;;;;;;;104.03;35.47;;;;;;;;;;5054391;28;20253;-72
2024/01/02 01:54:34;;;;;;;108.00;33.57;;;;;;;;;;5054174;28;20425;-72
2024/01/02 01:57:00;;;;;;;109.07;34.47;;;;;;;;;;5037353;28;20429;-72
2024/01/02 01:59:27;;;;;;;113.40;34.03;;;;;;;;;;5053875;28;20658;-73
2024/01/02 02:01:54;;;;;;;115.73;36.10;;;;;;;;;;5020602;28;20246;-73
2024/01/02 02:04:21;;;;;;;117.77;38.07;;;;;;;;;;5038134;28;20182;-72
2024/01/02 02:06:48;;;;;;;120.60;36.13;;;;;;;;;;5037377;28;20633;-72
2024/01/02 02:09:14;;;;;;;116.40;36.63;;;;;;;;;;5055235;28;20289;-72
2024/01/02 02:11:41;;;;;;;129.07;35.93;;;;;;;;;;5053961;28;20179;-72
2024/01/02 02:14:08;;;;;;;109.50;36.73;;;;;;;;;;5052906;28;20942;-72
2024/01/02 02:16:35;;;;;;;103.27;35.73;;;;;;;;;;5037115;28;20495;-72
2024/01/02 02:19:02;;;;;;;170.43;36.87;;;;;;;;;;5053699;28;20215;-72
2024/01/02 02:21:29;;;;;;;105.70;33.23;;;;;;;;;;5037112;28;20729;-70
2024/01/02 02:23:55;;;;;;;116.10;33.13;;;;;;;;;;5053696;28;20187;-72
2024/01/02 02:26:22;;;;;;;117.03;34.17;;;;;;;;;;5036978;28;20445;-72
2024/01/02 02:28:49;;;;;;;125.10;32.53;;;;;;;;;;5053301;28;20197;-72
2024/01/02 02:31:16;;;;;;;104.87;33.60;;;;;;;;;;5070742;28;20225;-72
2024/01/02 02:33:43;;;;;;;123.50;34.27;;;;;;;;;;5036999;28;20248;-72
2024/01/02 02:36:10;;;;;;;146.47;34.57;;;;;;;;;;5036819;28;20202;-72
2024/01/02 02:38:37;;;;;;;96.43;33.40;;;;;;;;;;5036937;28;20665;-69
2024/01/02 02:41:21;;;;;;;177.43;35.20;;;;;;;;;;5054604;28;20237;-72
2024/01/02 02:43:47;;;;;;;171.37;35.17;;;;;;;;;;5054252;28;20573;-72
2024/01/02 02:46:31;;;;;;;139.83;34.03;;;;;;;;;;5039323;28;20170;-72
2024/01/02 02:48:58;;;;;;;162.37;36.27;;;;;;;;;;5053143;28;20733;-72
2024/01/02 02:51:25;;;;;;;184.83;37.07;;;;;;;;;;5054390;28;20630;-72
2024/01/02 02:53:51;;;;;;;172.60;36.23;;;;;;;;;;5053104;28;20187;-72
2024/01/02 02:56:18;;;;;;;169.27;35.80;;;;;;;;;;5053032;28;20670;-72
2024/01/02 02:58:45;;;;;;;198.57;37.97;;;;;;;;;;5069552;28;20465;-72
2024/01/02 03:01:21;;;;;;;165.03;35.43;;;;;;;;;;5053162;28;20261;-72
2024/01/02 03:03:48;;;;;;;138.43;32.87;;;;;;;;;;5053073;28;20282;-72
2024/01/02 03:06:15;;;;;;;182.63;35.93;;;;;;;;;;5052687;28;20455;-72
2024/01/02 03:08:42;;;;;;;131.47;33.73;;;;;;;;;;5052863;28;20241;-72
2024/01/02 03:11:08;;;;;;;138.80;33.30;;;;;;;;;;5052559;28;20534;-72
2024/01/02 03:13:35;;;;;;;154.90;33.57;;;;;;;;;;5053147;28;20186;-72
2024/01/02 03:16:02;;;;;;;119.17;31.57;;;;;;;;;;5069359;28;20195;-72
2024/01/02 03:18:28;;;;;;;79.27;31.07;;;;;;;;;;5053109;28;20325;-72
2024/01/02 03:20:55;;;;;;;94.13;29.83;;;;;;;;;;5019887;28;20182;-72
2024/01/02 03:23:22;;;;;;;124.00;31.13;;;;;;;;;;5053656;28;20182;-72
2024/01/02 03:25:49;;;;;;;144.87;31.57;;;;;;;;;;5053021;28;20218;-72
2024/01/02 03:28:16;;;;;;;118.73;30.97;;;;;;;;;;5053944;28;20194;-72
2024/01/02 03:30:42;;;;;;;109.00;31.83;;;;;;;;;;5052337;28;20688;-73
2024/01/02 03:33:09;;;;;;;118.17;30.83;;;;;;;;;;5052649;28;20471;-73
2024/01/02 03:35:36;;;;;;;102.23;29.13;;;;;;;;;;5035432;28;20754;-75
2024/01/02 03:38:03;;;;;;;89.40;29.70;;;;;;;;;;5053807;28;20385;-75
2024/01/02 03:40:30;;;;;;;94.30;30.27;;;;;;;;;;5054204;28;20213;-75
2024/01/02 03:42:57;;;;;;;106.33;29.27;;;;;;;;;;5053932;28;20908;-74
2024/01/02 03:45:25;;;;;;;106.97;29.30;;;;;;;;;;5053347;28;20195;-75
2024/01/02 03:48:09;;;;;;;100.60;29.60;;;;;;;;;;5053928;28;20382;-74
2024/01/02 03:50:36;;;;;;;80.83;29.70;;;;;;;;;;5036189;28;20237;-74
2024/01/02 03:53:03;;;;;;;80.47;29.83;;;;;;;;;;5069427;28;20527;-74
2024/01/02 03:55:30;;;;;;;76.33;28.90;;;;;;;;;;5036573;28;20194;-73
2024/01/02 03:57:57;;;;;;;65.90;27.93;;;;;;;;;;5053564;28;20182;-73
2024/01/02 04:00:23;;;;;;;55.30;25.53;;;;;;;;;;5052391;28;20214;-73
2024/01/02 04:02:50;;;;;;;62.80;26.17;;;;;;;;;;5053264;28;20214;-74
2024/01/02 04:05:17;;;;;;;62.63;26.67;;;;;;;;;;5069138;28;20236;-75
2024/01/02 04:07:45;;;;;;;60.87;25.47;;;;;;;;;;5054300;28;20187;-74
2024/01/02 04:10:11;;;;;;;62.53;25.93;;;;;;;;;;5052628;28;20187;-76
2024/01/02 04:12:38;;;;;;;60.07;25.43;;;;;;;;;;5053340;28;20183;-74
2024/01/02 04:15:08;;;;;;;57.57;24.70;;;;;;;;;;5053705;28;20195;-76
2024/01/02 04:17:35;;;;;;;60.97;25.17;;;;;;;;;;5020037;28;20199;-75
2024/01/02 04:20:02;;;;;;;45.67;20.40;;;;;;;;;;5052187;28;20256;-74
2024/01/02 04:22:29;;;;;;;37.37;17.03;;;;;;;;;;5051982;28;20616;-76
2024/01/02 04:24:55;;;;;;;27.67;12.93;;;;;;;;;;5052212;28;20222;-75
2024/01/02 04:27:22;;;;;;;31.53;12.73;;;;;;;;;;5051970;28;20192;-73
2024/01/02 04:29:49;;;;;;;28.87;12.57;;;;;;;;;;5053047;28;20416;-73
2024/01/02 04:32:16;;;;;;;27.80;12.70;;;;;;;;;;5051916;28;20278;-73
2024/01/02 04:34:43;;;;;;;28.53;12.87;;;;;;;;;;5054077;28;20202;-76
2024/01/02 04:37:10;;;;;;;40.87;12.87;;;;;;;;;;5070388;28;20756;-77
2024/01/02 04:39:36;;;;;;;34.93;12.07;;;;;;;;;;5039227;28;20202;-74
2024/01/02 04:42:03;;;;;;;28.80;11.27;;;;;;;;;;5057082;28;20273;-77
2024/01/02 04:44:30;;;;;;;27.60;10.17;;;;;;;;;;5041571;28;20542;-78
2024/01/02 04:46:58;;;;;;;29.23;10.17;;;;;;;;;;5023417;28;20290;-77
2024/01/02 04:49:25;;;;;;;29.70;10.00;;;;;;;;;;5038955;28;20248;-72
2024/01/02 04:52:09;;;;;;;33.93;9.87;;;;;;;;;;5055220;28;20202;-72
2024/01/02 04:54:36;;;;;;;30.40;9.70;;;;;;;;;;5055812;28;20421;-79
2024/01/02 04:57:02;;;;;;;24.70;9.67;;;;;;;;;;5074538;28;20427;-76
2024/01/02 04:59:31;;;;;;;23.83;9.20;;;;;;;;;;5060090;28;20469;-77
2024/01/02 05:01:58;;;;;;;23.27;9.63;;;;;;;;;;5072521;28;20543;-74
2024/01/02 05:04:24;;;;;;;26.23;9.90;;;;;;;;;;5071392;28;20187;-75
2024/01/02 05:06:51;;;;;;;19.50;9.00;;;;;;;;;;5071686;28;20429;-75
2024/01/02 05:09:20;;;;;;;20.17;9.30;;;;;;;;;;5055245;28;20433;-74
2024/01/02 05:11:48;;;;;;;21.27;9.00;;;;;;;;;;5054683;28;20786;-75
2024/01/02 05:14:17;;;;;;;24.60;9.10;;;;;;;;;;5071535;28;20433;-74
2024/01/02 05:16:43;;;;;;;23.23;9.47;;;;;;;;;;5054766;28;20813;-75
2024/01/02 05:19:10;;;;;;;28.83;10.33;;;;;;;;;;5055736;28;20460;-74
2024/01/02 05:21:37;;;;;;;26.20;10.33;;;;;;;;;;5056300;28;20428;-75
2024/01/02 05:24:04;;;;;;;22.33;9.23;;;;;;;;;;5021783;28;20201;-74
2024/01/02 05:26:31;;;;;;;24.93;9.03;;;;;;;;;;5054622;28;20499;-74
2024/01/02 05:28:58;;;;;;;24.83;9.53;;;;;;;;;;5054650;28;20449;-75
2024/01/02 05:31:25;;;;;;;32.33;8.87;;;;;;;;;;5054527;28;20992;-75
2024/01/02 05:33:51;;;;;;;24.97;9.63;;;;;;;;;;5055449;28;20423;-74
2024/01/02 05:36:18;;;;;;;31.43;9.80;;;;;;;;;;5071003;28;20285;-74
2024/01/02 05:38:45;;;;;;;23.23;9.10;;;;;;;;;;5071016;28;20476;-74
2024/01/02 05:41:12;;;;;;;19.53;9.13;;;;;;;;;;5070579;28;20201;-73
2024/01/02 05:43:39;;;;;;;22.57;8.83;;;;;;;;;;5054270;28;20476;-83
2024/01/02 05:46:06;;;;;;;18.97;7.93;;;;;;;;;;5070808;28;20441;-77
2024/01/02 05:48:33;;;;;;;21.80;8.37;;;;;;;;;;5054915;28;20421;-76
2024/01/02 05:51:03;;;;;;;16.70;7.70;;;;;;;;;;5071340;28;20820;-77
2024/01/02 05:53:29;;;;;;;17.20;7.87;;;;;;;;;;5037570;28;20440;-78
2024/01/02 05:55:56;;;;;;;16.63;7.47;;;;;;;;;;5055719;28;20252;-77
2024/01/02 05:58:23;;;;;;;16.23;7.07;;;;;;;;;;5070537;28;20498;-77
2024/01/02 06:00:49;;;;;;;16.37;7.13;;;;;;;;;;5054681;28;20500;-74
2024/01/02 06:07:10;;;;;;;12.70;6.07;;;;;;;;;;5046141;28;20541;-78
2024/01/02 06:13:30;;;;;;;14.07;5.90;;;;;;;;;;5045797;28;20424;-76
2024/01/02 06:15:58;;;;;;;15.60;5.63;;;;;;;;;;5011568;28;22577;-76
2024/01/02 06:18:25;;;;;;;12.27;5.43;;;;;;;;;;5045856;28;20869;-76
2024/01/02 06:20:52;;;;;;;12.40;5.40;;;;;;;;;;5044225;28;20469;-76
2024/01/02 06:23:19;;;;;;;11.67;5.40;;;;;;;;;;5011365;28;20198;-72
2024/01/02 06:25:46;;;;;;;12.20;5.60;;;;;;;;;;5027372;28;20454;-74
2024/01/02 06:28:12;;;;;;;14.57;5.80;;;;;;;;;;5043966;28;20429;-75
2024/01/02 06:30:39;;;;;;;13.37;5.47;;;;;;;;;;5011133;28;20429;-75
2024/01/02 06:33:06;;;;;;;14.90;5.70;;;;;;;;;;5027154;28;20502;-75
2024/01/02 06:35:33;;;;;;;12.03;5.70;;;;;;;;;;5011054;28;20437;-75
2024/01/02 06:37:59;;;;;;;16.97;6.37;;;;;;;;;;5043833;28;20430;-76
2024/01/02 06:40:30;;;;;;;16.27;6.50;;;;;;;;;;5027936;28;21045;-75
2024/01/02 06:42:57;;;;;;;14.13;6.63;;;;;;;;;;5045639;28;20421;-76
2024/01/02 06:45:24;;;;;;;18.10;6.67;;;;;;;;;;5043791;28;20512;-77
2024/01/02 06:47:51;;;;;;;23.80;6.67;;;;;;;;;;5027475;28;20512;-70
2024/01/02 06:50:18;;;;;;;25.53;6.77;;;;;;;;;;5043574;28;20829;-72
2024/01/02 06:52:45;;;;;;;31.83;7.57;;;;;;;;;;5043617;28;20433;-71
2024/01/02 06:55:11;;;;;;;31.10;6.73;;;;;;;;;;5043510;28;20433;-76
2024/01/02 06:57:38;;;;;;;18.43;6.40;;;;;;;;;;5027586;28;20429;-76
2024/01/02 07:00:06;;;;;;;12.70;6.37;;;;;;;;;;5026445;28;20469;-76
2024/01/02 07:02:33;;;;;;;16.40;6.77;;;;;;;;;;5027500;28;20475;-76
2024/01/02 07:05:00;;;;;;;21.07;9.83;;;;;;;;;;5013135;28;20523;-74
2024/01/02 07:07:28;;;;;;;18.63;10.23;;;;;;;;;;5059720;28;20417;-75
2024/01/02 07:09:55;;;;;;;15.23;8.13;;;;;;;;;;5043380;28;20440;-74
2024/01/02 07:12:21;;;;;;;14.00;8.17;;;;;;;;;;5060031;28;20433;-76
2024/01/02 07:14:48;;;;;;;17.27;8.57;;;;;;;;;;5043182;28;20508;-75
2024/01/02 07:17:19;;;;;;;13.40;7.03;;;;;;;;;;5051965;28;20425;-70
2024/01/02 07:19:46;;;;;;;17.43;10.23;;;;;;;;;;5052532;28;20864;-69
2024/01/02 07:22:12;;;;;;;13.40;6.67;;;;;;;;;;5052559;28;20429;-69
2024/01/02 07:24:39;;;;;;;11.97;6.70;;;;;;;;;;5053785;28;20432;-69
2024/01/02 07:27:06;;;;;;;20.20;6.07;;;;;;;;;;5052617;28;20449;-69
2024/01/02 07:29:32;;;;;;;10.57;6.40;;;;;;;;;;5052557;28;20433;-69
2024/01/02 07:31:59;;;;;;;15.87;6.70;;;;;;;;;;5053557;28;20430;-69
2024/01/02 07:34:26;;;;;;;9.03;5.93;;;;;;;;;;5053469;28;20413;-69
2024/01/02 07:36:52;;;;;;;11.87;6.27;;;;;;;;;;5053518;28;20429;-69
2024/01/02 07:39:19;;;;;;;14.00;6.13;;;;;;;;;;5053685;28;20409;-69
2024/01/02 07:41:46;;;;;;;11.90;6.53;;;;;;;;;;5054357;28;20448;-69
2024/01/02 07:44:12;;;;;;;10.03;5.70;;;;;;;;;;5036015;28;20425;-69
2024/01/02 07:46:39;;;;;;;11.57;5.90;;;;;;;;;;5052782;28;20503;-69
2024/01/02 07:49:06;;;;;;;10.77;5.50;;;;;;;;;;5053376;28;20428;-69
2024/01/02 07:51:33;;;;;;;11.40;6.00;;;;;;;;;;5053406;28;20915;-69
2024/01/02 07:54:00;;;;;;;11.60;5.87;;;;;;;;;;5052383;28;20515;-69
2024/01/02 07:56:28;;;;;;;13.03;6.33;;;;;;;;;;5052645;28;20820;-69
2024/01/02 07:58:55;;;;;;;12.23;6.67;;;;;;;;;;5036208;28;20901;-69
2024/01/02 08:01:22;;;;;;;11.30;6.07;;;;;;;;;;5053430;28;20927;-69
2024/01/02 08:03:49;;;;;;;20.10;6.37;;;;;;;;;;5035877;28;20460;-69
2024/01/02 08:10:09;;;;;;;26.60;6.60;;;;;;;;;;5053266;28;20868;-69
2024/01/02 08:12:36;;;;;;;55.90;7.30;;;;;;;;;;5056612;28;20433;-69
2024/01/02 08:15:02;;;;;;;51.10;7.20;;;;;;;;;;5055860;28;20433;-69
2024/01/02 08:17:29;;;;;;;38.80;6.77;;;;;;;;;;5056083;28;20785;-69
2024/01/02 08:20:13;;;;;;;40.57;7.23;;;;;;;;;;5056124;28;20424;-69
2024/01/02 08:22:40;;;;;;;54.63;7.33;;;;;;;;;;5057473;28;20429;-69
2024/01/02 08:25:24;;;;;;;56.37;8.07;;;;;;;;;;5057065;28;20907;-69
2024/01/02 08:27:51;;;;;;;40.87;6.97;;;;;;;;;;5056812;28;20448;-69
2024/01/02 08:30:18;;;;;;;26.90;6.40;;;;;;;;;;5055740;28;20962;-69
2024/01/02 08:32:45;;;;;;;27.23;7.10;;;;;;;;;;5055695;28;20433;-69
2024/01/02 08:35:12;;;;;;;19.57;6.50;;;;;;;;;;5056219;28;20444;-69
2024/01/02 08:37:43;;;;;;;37.30;7.53;;;;;;;;;;5057684;28;20421;-69
2024/01/02 08:40:13;;;;;;;30.63;7.10;;;;;;;;;;5055656;28;20534;-69
2024/01/02 08:42:57;;;;;;;38.87;7.47;;;;;;;;;;5056857;28;20405;-69
2024/01/02 08:45:25;;;;;;;62.87;8.30;;;;;;;;;;5056481;28;20424;-69
2024/01/02 08:47:51;;;;;;;48.03;8.27;;;;;;;;;;5055467;28;20821;-69
2024/01/02 08:50:18;;;;;;;55.20;8.10;;;;;;;;;;5056028;28;20966;-69
2024/01/02 08:52:47;;;;;;;55.90;9.50;;;;;;;;;;5055577;28;20492;-69
2024/01/02 08:55:14;;;;;;;88.63;9.90;;;;;;;;;;5039638;28;20904;-69
2024/01/02 08:57:41;;;;;;;98.47;10.43;;;;;;;;;;5056265;28;20525;-69
2024/01/02 09:00:08;;;;;;;122.70;11.93;;;;;;;;;;5038513;28;20943;-69
2024/01/02 09:02:36;;;;;;;144.00;11.87;;;;;;;;;;5055178;28;20519;-69
2024/01/02 09:05:03;;;;;;;201.43;13.90;;;;;;;;;;5055352;28;20983;-69
2024/01/02 09:07:31;;;;;;;122.43;14.63;;;;;;;;;;5056073;28;20429;-69
2024/01/02 09:10:15;;;;;;;195.70;16.77;;;;;;;;;;5056025;28;20398;-69
2024/01/02 09:12:42;;;;;;;145.60;14.00;;;;;;;;;;5055839;28;20444;-69
2024/01/02 09:15:09;;;;;;;147.63;15.10;;;;;;;;;;5056476;28;20425;-69
2024/01/02 09:17:35;;;;;;;125.93;11.27;;;;;;;;;;5054891;28;20437;-69
2024/01/02 09:20:03;;;;;;;114.40;15.77;;;;;;;;;;5056264;28;20496;-69
2024/01/02 09:22:30;;;;;;;76.20;14.97;;;;;;;;;;5056219;28;20923;-69
2024/01/02 09:24:58;;;;;;;91.83;16.57;;;;;;;;;;5049346;28;20521;-69
2024/01/02 09:27:26;;;;;;;49.80;10.20;;;;;;;;;;5018223;28;20750;-69
2024/01/02 09:29:53;;;;;;;38.80;9.80;;;;;;;;;;5034569;28;20438;-69
2024/01/02 09:32:20;;;;;;;40.10;9.63;;;;;;;;;;5018319;28;20525;-69
2024/01/02 09:34:49;;;;;;;44.67;8.67;;;;;;;;;;5035674;28;20449;-69
2024/01/02 09:37:16;;;;;;;31.90;9.97;;;;;;;;;;5019030;28;20465;-69
2024/01/02 09:39:43;;;;;;;25.87;8.50;;;;;;;;;;5051110;28;20541;-69
2024/01/02 09:42:28;;;;;;;26.60;8.93;;;;;;;;;;5018247;28;20446;-69
2024/01/02 09:45:04;;;;;;;23.97;8.80;;;;;;;;;;5044241;28;20441;-69
2024/01/02 09:47:39;;;;;;;18.27;8.57;;;;;;;;;;5034862;28;20730;-69
2024/01/02 09:50:23;;;;;;;36.83;9.13;;;;;;;;;;5035034;28;20723;-69
2024/01/02 09:53:02;;;;;;;28.47;9.23;;;;;;;;;;5034504;28;20452;-69
2024/01/02 09:55:37;;;;;;;27.97;8.97;;;;;;;;;;5034499;28;20448;-69
2024/01/02 09:58:08;;;;;;;28.50;8.37;;;;;;;;;;5035502;28;20430;-69
2024/01/02 10:00:57;;;;;;;34.67;9.17;;;;;;;;;;5034191;28;20925;-69
2024/01/02 10:03:27;;;;;;;43.80;10.53;;;;;;;;;;5034013;28;20877;-69
2024/01/02 10:05:54;;;;;;;35.90;10.70;;;;;;;;;;5033899;28;20434;-69
2024/01/02 10:08:23;;;;;;;41.20;10.80;;;;;;;;;;5035201;28;20518;-69
2024/01/02 10:10:51;;;;;;;35.63;9.37;;;;;;;;;;5034325;28;20422;-69
2024/01/02 10:13:24;;;;;;;30.03;10.03;;;;;;;;;;5034197;28;20430;-69
2024/01/02 10:15:51;;;;;;;25.27;10.33;;;;;;;;;;5034000;28;20410;-69
2024/01/02 10:18:20;;;;;;;33.80;10.00;;;;;;;;;;5034943;28;20432;-70
2024/01/02 10:21:08;;;;;;;28.13;9.80;;;;;;;;;;5034873;28;20814;-70
2024/01/02 10:23:47;;;;;;;43.83;10.70;;;;;;;;;;5034623;28;20488;-70
2024/01/02 10:26:15;;;;;;;29.90;10.33;;;;;;;;;;5033769;28;20459;-70
2024/01/02 10:28:42;;;;;;;29.17;10.03;;;;;;;;;;5033716;28;20430;-70
2024/01/02 10:31:34;;;;;;;27.27;9.77;;;;;;;;;;5033578;28;20869;-70
2024/01/02 10:34:03;;;;;;;22.30;10.27;;;;;;;;;;5032972;28;20949;-70
2024/01/02 10:36:30;;;;;;;24.73;10.37;;;;;;;;;;5033540;28;20434;-70
2024/01/02 10:39:15;;;;;;;25.10;11.17;;;;;;;;;;5034384;28;20947;-70
2024/01/02 10:41:52;;;;;;;19.47;10.93;;;;;;;;;;5033633;28;20454;-70
2024/01/02 10:44:19;;;;;;;64.37;24.37;;;;;;;;;;5034330;28;20422;-70
2024/01/02 10:46:48;;;;;;;61.80;28.40;;;;;;;;;;5032491;28;20438;-72
2024/01/02 10:49:21;;;;;;;36.50;17.50;;;;;;;;;;5022949;28;22013;-71
2024/01/02 10:52:15;;;;;;;35.40;21.00;;;;;;;;;;5042690;28;20453;-70
2024/01/02 10:54:51;;;;;;;27.70;16.33;;;;;;;;;;5042068;28;20496;-76
2024/01/02 10:57:27;;;;;;;19.83;10.27;;;;;;;;;;5043988;28;20486;-71
2024/01/02 11:00:10;;;;;;;21.37;10.77;;;;;;;;;;5027297;28;20433;-70
2024/01/02 11:02:42;;;;;;;17.00;9.43;;;;;;;;;;5023611;28;20465;-73
2024/01/02 11:09:19;;;;;;;18.10;10.27;;;;;;;;;;5025313;28;20441;-75
2024/01/02 11:15:46;;;;;;;21.53;10.53;;;;;;;;;;5037418;28;21900;-76
2024/01/02 11:18:13;;;;;;;23.77;10.10;;;;;;;;;;5027172;28;20430;-75
2024/01/02 11:21:10;;;;;;;25.37;10.90;;;;;;;;;;5027682;28;20465;-74
2024/01/02 11:23:40;;;;;;;17.23;9.53;;;;;;;;;;5040334;28;20445;-74
2024/01/02 11:26:14;;;;;;;18.93;10.23;;;;;;;;;;5025509;28;20468;-74
2024/01/02 11:28:42;;;;;;;14.30;8.67;;;;;;;;;;5008258;28;20437;-77
2024/01/02 11:31:10;;;;;;;15.27;8.73;;;;;;;;;;5007677;28;20444;-76
2024/01/02 11:33:37;;;;;;;16.10;8.60;;;;;;;;;;5024439;28;20418;-76
2024/01/02 11:36:11;;;;;;;15.93;8.37;;;;;;;;;;5024165;28;20517;-76
2024/01/02 11:42:49;;;;;;;19.33;9.77;;;;;;;;;;5034841;28;20455;-75
2024/01/02 11:45:17;;;;;;;18.47;9.37;;;;;;;;;;5027324;28;20487;-72
2024/01/02 11:47:44;;;;;;;19.10;9.47;;;;;;;;;;5047657;28;20441;-75
2024/01/02 11:50:13;;;;;;;20.63;9.57;;;;;;;;;;5018922;28;20480;-74
2024/01/02 11:52:54;;;;;;;16.40;8.67;;;;;;;;;;5032116;28;20426;-75
2024/01/02 11:55:30;;;;;;;16.30;9.37;;;;;;;;;;5027063;28;20421;-75
2024/01/02 11:58:01;;;;;;;17.97;9.03;;;;;;;;;;5029158;28;20425;-75
2024/01/02 12:00:40;;;;;;;19.10;9.40;;;;;;;;;;5027084;28;20816;-70
2024/01/02 12:03:12;;;;;;;21.07;10.10;;;;;;;;;;5010767;28;20487;-75
2024/01/02 12:05:50;;;;;;;20.73;9.73;;;;;;;;;;5012376;28;20824;-74
2024/01/02 12:08:18;;;;;;;17.63;9.20;;;;;;;;;;5014892;28;20480;-75
2024/01/02 12:10:48;;;;;;;18.60;9.73;;;;;;;;;;5027196;28;20947;-72
2024/01/02 12:13:19;;;;;;;18.27;10.20;;;;;;;;;;5009975;28;20460;-74
2024/01/02 12:15:54;;;;;;;21.60;9.80;;;;;;;;;;5027035;28;20423;-72
2024/01/02 12:18:22;;;;;;;21.83;9.90;;;;;;;;;;5026918;28;20520;-72
2024/01/02 12:20:52;;;;;;;22.40;10.03;;;;;;;;;;5010436;28;20458;-74
2024/01/02 12:23:19;;;;;;;23.57;9.53;;;;;;;;;;5010217;28;20441;-72
2024/01/02 12:25:46;;;;;;;26.10;9.73;;;;;;;;;;5010147;28;20488;-72
2024/01/02 12:28:14;;;;;;;29.30;10.70;;;;;;;;;;5027044;28;20520;-73
2024/01/02 12:30:50;;;;;;;39.90;11.07;;;;;;;;;;5018174;28;20509;-76
2024/01/02 12:33:34;;;;;;;28.13;10.77;;;;;;;;;;5010291;28;20441;-71
2024/01/02 12:36:44;;;;;;;40.60;15.40;;;;;;;;;;5012347;28;20445;-70
2024/01/02 12:39:11;;;;;;;41.10;12.37;;;;;;;;;;5026458;28;20449;-70
2024/01/02 12:42:18;;;;;;;31.33;12.93;;;;;;;;;;5026109;28;20473;-75
2024/01/02 12:44:47;;;;;;;28.90;10.37;;;;;;;;;;5026825;28;20438;-72
2024/01/02 12:55:14;;;;;;;21.97;8.87;;;;;;;;;;5030766;28;20968;-77
2024/01/02 12:57:43;;;;;;;30.17;9.73;;;;;;;;;;5010292;28;20454;-79
2024/01/02 13:00:10;;;;;;;37.13;9.13;;;;;;;;;;5028277;28;20434;-79
2024/01/02 13:02:37;;;;;;;22.23;9.43;;;;;;;;;;5010258;28;20510;-74
2024/01/02 13:05:05;;;;;;;25.57;9.63;;;;;;;;;;5009885;28;20418;-73
2024/01/02 13:07:31;;;;;;;20.80;9.57;;;;;;;;;;5010224;28;20454;-73
2024/01/02 13:10:00;;;;;;;20.17;9.37;;;;;;;;;;5026078;28;20411;-74
2024/01/02 13:12:28;;;;;;;29.03;11.03;;;;;;;;;;5026405;28;20819;-74
2024/01/02 13:14:55;;;;;;;26.47;10.43;;;;;;;;;;5010464;28;20430;-78
2024/01/02 13:17:22;;;;;;;26.50;10.27;;;;;;;;;;5026760;28;20437;-77
2024/01/02 13:19:51;;;;;;;20.73;9.97;;;;;;;;;;5025688;28;20935;-79
2024/01/02 13:22:22;;;;;;;30.40;10.37;;;;;;;;;;5048085;28;20522;-79
2024/01/02 13:24:50;;;;;;;25.33;10.40;;;;;;;;;;5047307;28;20539;-76
2024/01/02 13:27:26;;;;;;;22.97;10.03;;;;;;;;;;5009452;28;20430;-76
2024/01/02 13:29:56;;;;;;;25.43;10.00;;;;;;;;;;5025755;28;20449;-76
2024/01/02 13:32:24;;;;;;;23.73;9.27;;;;;;;;;;5009497;28;20504;-76
2024/01/02 13:34:53;;;;;;;27.70;9.27;;;;;;;;;;5025368;28;20442;-76
2024/01/02 13:37:24;;;;;;;36.33;9.77;;;;;;;;;;5008753;28;20477;-76
2024/01/02 13:40:21;;;;;;;44.53;9.70;;;;;;;;;;5040679;28;20756;-76
2024/01/02 13:42:58;;;;;;;30.83;10.97;;;;;;;;;;5045518;28;22315;-76
2024/01/02 13:45:42;;;;;;;48.87;13.77;;;;;;;;;;5017888;28;20409;-76
2024/01/02 13:48:10;;;;;;;71.40;16.60;;;;;;;;;;5046201;28;20452;-77
2024/01/02 13:50:37;;;;;;;50.73;12.03;;;;;;;;;;5017097;28;20473;-76
2024/01/02 13:53:07;;;;;;;44.83;11.03;;;;;;;;;;5032514;28;20871;-77
2024/01/02 13:55:35;;;;;;;38.30;13.17;;;;;;;;;;5026824;28;20446;-76
2024/01/02 13:58:09;;;;;;;34.87;14.00;;;;;;;;;;5029185;28;20488;-72
2024/01/02 14:00:37;;;;;;;46.47;14.23;;;;;;;;;;5028332;28;20430;-79
2024/01/02 14:03:07;;;;;;;44.00;12.50;;;;;;;;;;5045581;28;20452;-81
2024/01/02 14:05:37;;;;;;;75.43;17.97;;;;;;;;;;5040092;28;20766;-78
2024/01/02 14:08:04;;;;;;;70.90;18.03;;;;;;;;;;5029856;28;20481;-79
2024/01/02 14:10:38;;;;;;;44.97;13.10;;;;;;;;;;5026702;28;20541;-76
2024/01/02 14:13:05;;;;;;;50.17;11.77;;;;;;;;;;5013972;28;20461;-81
2024/01/02 14:15:34;;;;;;;45.50;12.23;;;;;;;;;;5046396;28;20425;-80
2024/01/02 14:18:01;;;;;;;44.60;14.13;;;;;;;;;;5029147;28;20426;-76
2024/01/02 14:20:31;;;;;;;54.67;14.37;;;;;;;;;;5045159;28;20436;-82
2024/01/02 14:23:01;;;;;;;64.97;18.30;;;;;;;;;;5046667;28;20465;-79
2024/01/02 14:25:28;;;;;;;71.57;15.40;;;;;;;;;;5037570;28;20448;-79
2024/01/02 14:28:16;;;;;;;96.00;14.33;;;;;;;;;;5045052;28;20932;-80
2024/01/02 14:30:43;;;;;;;117.50;14.57;;;;;;;;;;5044376;28;20468;-79
2024/01/02 14:33:10;;;;;;;129.50;19.37;;;;;;;;;;5027866;28;20437;-79
2024/01/02 14:35:53;;;;;;;103.37;13.07;;;;;;;;;;5044057;28;20448;-79
2024/01/02 14:38:35;;;;;;;98.03;13.33;;;;;;;;;;5045597;28;20439;-78
2024/01/02 14:41:02;;;;;;;94.47;15.37;;;;;;;;;;5044064;28;20429;-78
2024/01/02 14:43:41;;;;;;;118.27;19.53;;;;;;;;;;5027664;28;20512;-78
2024/01/02 14:46:25;;;;;;;92.60;14.07;;;;;;;;;;5044298;28;20765;-78
2024/01/02 14:49:10;;;;;;;102.73;15.60;;;;;;;;;;5010956;28;20457;-80
2024/01/02 14:51:39;;;;;;;103.47;17.33;;;;;;;;;;5018935;28;20515;-77
2024/01/02 14:54:12;;;;;;;138.90;16.70;;;;;;;;;;5043606;28;20819;-81
2024/01/02 14:56:54;;;;;;;140.43;16.97;;;;;;;;;;5045092;28;20433;-76
2024/01/02 14:59:30;;;;;;;162.30;24.83;;;;;;;;;;5027454;28;20475;-78
2024/01/02 15:01:57;;;;;;;135.93;20.23;;;;;;;;;;5026788;28;20975;-78
2024/01/02 15:04:38;;;;;;;161.97;19.80;;;;;;;;;;5044940;28;20793;-78
2024/01/02 15:07:05;;;;;;;158.70;19.10;;;;;;;;;;5027072;28;20414;-78
2024/01/02 15:09:36;;;;;;;166.10;19.43;;;;;;;;;;5027480;28;20836;-78
2024/01/02 15:12:11;;;;;;;134.83;19.77;;;;;;;;;;5012133;28;20822;-77
2024/01/02 15:14:44;;;;;;;158.77;19.40;;;;;;;;;;5043643;28;20452;-80
2024/01/02 15:17:20;;;;;;;147.37;19.53;;;;;;;;;;5044782;28;20424;-78
2024/01/02 15:19:47;;;;;;;156.23;19.47;;;;;;;;;;5044063;28;20474;-76
2024/01/02 15:22:21;;;;;;;108.27;19.27;;;;;;;;;;5045922;28;20483;-77
2024/01/02 15:24:52;;;;;;;125.17;22.13;;;;;;;;;;5043649;28;20460;-77
2024/01/02 15:27:19;;;;;;;264.63;47.33;;;;;;;;;;5044725;28;20524;-80
2024/01/02 15:29:47;;;;;;;139.17;18.57;;;;;;;;;;5043178;28;20469;-76
2024/01/02 15:32:15;;;;;;;175.03;26.87;;;;;;;;;;5027047;28;20903;-76
2024/01/02 15:34:52;;;;;;;376.27;100.03;;;;;;;;;;5043284;28;20476;-77
2024/01/02 15:37:25;;;;;;;155.17;18.03;;;;;;;;;;5044799;28;20436;-77
2024/01/02 15:39:58;;;;;;;256.70;62.40;;;;;;;;;;5010457;28;21609;-77
2024/01/02 15:42:34;;;;;;;182.97;27.83;;;;;;;;;;5026794;28;20480;-76
2024/01/02 15:45:08;;;;;;;128.87;18.90;;;;;;;;;;5026836;28;20452;-76